Terminal Aerodrome Forecast
Issued by NWS

Home | Current Version | Previous Version | Text Only | Print | Product List | Glossary Off
Versions: 1 2 3 4 5 6 7 8 9 10 11 12 13 14 15 16 17 18 19 20 21

000
FTUS43 KMPX 211748
TAFAXN
TAF
KAXN 211748Z 2118/2218 12009KT P6SM OVC010
     FM211900 12008KT P6SM OVC015
     FM220500 12005KT 6SM BR OVC007
     FM221200 14004KT 4SM BR OVC007
     FM221500 16006KT P6SM OVC007
     FM221700 16006KT P6SM BKN015=

USA.gov is the U.S. government's official web portal to all federal, state and local government web resources and services.